createdAt,value
2022-08-01T00:00:51.534Z,23.46
2022-08-01T00:03:19.308Z,23.44
2022-08-01T00:05:47.626Z,23.34
2022-08-01T00:08:15.344Z,23.18
2022-08-01T00:10:43.106Z,23.24
2022-08-01T00:13:10.783Z,23.16
2022-08-01T00:15:38.560Z,23.13
2022-08-01T00:18:07.676Z,23.10
2022-08-01T00:20:35.420Z,23.05
2022-08-01T00:23:04.587Z,23.10
2022-08-01T00:25:33.996Z,23.02
2022-08-01T00:28:02.244Z,22.96
2022-08-01T00:30:31.941Z,22.83
2022-08-01T00:32:59.577Z,22.85
2022-08-01T00:35:29.105Z,22.81
2022-08-01T00:37:56.774Z,22.71
2022-08-01T00:40:24.867Z,22.67
2022-08-01T00:42:52.556Z,22.77
2022-08-01T00:45:20.266Z,22.70
2022-08-01T00:47:47.983Z,22.65
2022-08-01T00:50:23.152Z,22.54
2022-08-01T00:52:54.162Z,22.52
2022-08-01T00:55:22.311Z,22.48
2022-08-01T00:58:02.784Z,22.45
2022-08-01T01:00:51.973Z,22.48
2022-08-01T01:03:23.782Z,22.44
2022-08-01T01:06:15.306Z,22.56
2022-08-01T01:08:51.801Z,22.48
2022-08-01T01:11:27.418Z,22.39
2022-08-01T01:14:01.585Z,22.48
2022-08-01T01:16:33.514Z,22.46
2022-08-01T01:19:04.681Z,22.47
2022-08-01T01:21:49.792Z,22.46
2022-08-01T01:24:30.455Z,22.45
2022-08-01T01:27:07.339Z,22.28
2022-08-01T01:29:59.647Z,22.29
2022-08-01T01:32:34.790Z,22.30
2022-08-01T01:35:07.516Z,22.37
2022-08-01T01:37:36.418Z,22.44
2022-08-01T01:40:05.904Z,22.52
2022-08-01T01:42:34.506Z,22.34
2022-08-01T01:45:06.011Z,22.51
2022-08-01T01:47:35.342Z,22.46
2022-08-01T01:50:07.568Z,22.37
2022-08-01T01:52:36.692Z,22.51
2022-08-01T01:55:10.056Z,22.47
2022-08-01T01:57:41.461Z,22.45
2022-08-01T02:00:13.539Z,22.51
2022-08-01T02:02:43.159Z,22.46
2022-08-01T02:05:12.970Z,22.39
2022-08-01T02:07:42.405Z,22.52
2022-08-01T02:10:11.871Z,22.48
2022-08-01T02:12:43.172Z,22.47
2022-08-01T02:15:14.017Z,22.41
2022-08-01T02:17:45.619Z,22.27
2022-08-01T02:20:14.526Z,22.30
2022-08-01T02:22:46.705Z,22.20
2022-08-01T02:25:22.551Z,22.13
2022-08-01T02:27:56.605Z,21.99
2022-08-01T02:30:27.963Z,21.80
2022-08-01T02:33:03.044Z,21.69
2022-08-01T02:35:34.012Z,21.68
2022-08-01T02:38:03.963Z,21.55
2022-08-01T02:40:34.683Z,21.53
2022-08-01T02:43:05.439Z,21.35
2022-08-01T02:45:37.583Z,21.11
2022-08-01T02:48:11.666Z,21.06
2022-08-01T02:50:40.737Z,20.73
2022-08-01T02:53:11.299Z,20.60
2022-08-01T02:55:41.627Z,20.54
2022-08-01T02:58:11.279Z,20.52
2022-08-01T03:00:43.216Z,20.38
2022-08-01T03:03:12.757Z,20.31
2022-08-01T03:05:41.597Z,20.23
2022-08-01T03:08:11.926Z,20.20
2022-08-01T03:10:46.508Z,20.53
2022-08-01T03:13:16.356Z,20.71
2022-08-01T03:15:46.393Z,20.62
2022-08-01T03:18:15.875Z,20.52
2022-08-01T03:20:45.300Z,20.49
2022-08-01T03:23:14.566Z,20.44
2022-08-01T03:25:45.420Z,20.39
2022-08-01T03:28:16.008Z,20.29
2022-08-01T03:30:46.160Z,20.15
2022-08-01T03:33:14.606Z,20.04
2022-08-01T03:35:49.683Z,20.02
2022-08-01T03:38:23.649Z,19.96
2022-08-01T03:40:55.340Z,19.91
2022-08-01T03:43:30.022Z,19.94
2022-08-01T03:46:04.243Z,19.83
2022-08-01T03:48:35.123Z,19.70
2022-08-01T03:51:03.665Z,19.58
2022-08-01T03:53:35.446Z,19.65
2022-08-01T03:56:09.479Z,19.50
2022-08-01T03:58:40.464Z,19.47
2022-08-01T04:01:15.337Z,19.39
2022-08-01T04:03:44.321Z,19.58
2022-08-01T04:06:14.039Z,19.62
2022-08-01T04:08:42.591Z,19.60
2022-08-01T04:11:11.276Z,19.51
2022-08-01T04:13:39.200Z,19.55
2022-08-01T04:16:07.574Z,19.51
2022-08-01T04:18:36.611Z,19.70
2022-08-01T04:21:04.368Z,19.60
2022-08-01T04:23:33.584Z,19.67
2022-08-01T04:26:05.067Z,19.70
2022-08-01T04:28:36.764Z,19.75
2022-08-01T04:31:10.462Z,19.79
2022-08-01T04:33:42.749Z,19.85
2022-08-01T04:36:13.182Z,19.85
2022-08-01T04:38:42.440Z,19.89
2022-08-01T04:41:13.148Z,20.00
2022-08-01T04:43:44.023Z,20.05
2022-08-01T04:46:13.170Z,19.97
2022-08-01T04:48:43.323Z,19.79
2022-08-01T04:51:16.170Z,19.75
2022-08-01T04:53:44.628Z,19.79
2022-08-01T04:56:14.109Z,19.75
2022-08-01T04:58:42.927Z,19.88
2022-08-01T05:01:11.590Z,19.87
2022-08-01T05:03:39.445Z,19.81
2022-08-01T05:06:08.588Z,19.81
2022-08-01T05:08:37.276Z,19.83
2022-08-01T05:11:05.577Z,19.72
2022-08-01T05:13:33.283Z,19.69
2022-08-01T05:16:01.156Z,19.67
2022-08-01T05:18:28.923Z,19.74
2022-08-01T05:20:56.611Z,19.83
2022-08-01T05:23:42.799Z,20.12
2022-08-01T05:26:14.847Z,20.45
2022-08-01T05:28:42.912Z,20.74
2022-08-01T05:31:10.644Z,21.37
2022-08-01T05:33:38.496Z,21.76
2022-08-01T05:36:06.825Z,21.91
2022-08-01T05:38:35.860Z,22.28
2022-08-01T05:41:03.730Z,22.31
2022-08-01T05:43:31.454Z,22.48
2022-08-01T05:45:59.772Z,22.41
2022-08-01T05:48:27.648Z,22.41
2022-08-01T05:50:58.679Z,22.42
2022-08-01T05:53:27.005Z,22.62
2022-08-01T05:55:56.113Z,22.77
2022-08-01T05:58:24.265Z,22.63
2022-08-01T06:00:52.128Z,22.46
2022-08-01T06:03:20.927Z,22.70
2022-08-01T06:05:48.712Z,22.99
2022-08-01T06:08:16.533Z,23.45
2022-08-01T06:10:44.196Z,23.96
2022-08-01T06:13:13.336Z,24.41
2022-08-01T06:15:41.184Z,25.28
2022-08-01T06:18:09.067Z,25.82
2022-08-01T06:20:36.739Z,25.18
2022-08-01T06:23:14.670Z,25.08
2022-08-01T06:25:54.515Z,25.19
2022-08-01T06:28:23.901Z,25.37
2022-08-01T06:30:52.023Z,25.26
2022-08-01T06:33:19.744Z,25.62
2022-08-01T06:35:47.432Z,25.63
2022-08-01T06:38:15.976Z,26.03
2022-08-01T06:40:43.817Z,25.92
2022-08-01T06:43:12.685Z,25.73
2022-08-01T06:45:42.301Z,25.37
2022-08-01T06:48:10.219Z,25.32
2022-08-01T06:50:38.557Z,25.61
2022-08-01T06:53:06.250Z,25.74
2022-08-01T06:55:33.972Z,25.93
2022-08-01T06:58:01.666Z,25.70
2022-08-01T07:00:29.673Z,25.41
2022-08-01T07:03:00.965Z,25.78
2022-08-01T07:05:29.563Z,25.71
2022-08-01T07:07:57.215Z,25.82
2022-08-01T07:10:25.013Z,25.80
2022-08-01T07:12:52.736Z,25.85
2022-08-01T07:15:23.041Z,25.32
2022-08-01T07:17:50.730Z,25.71
2022-08-01T07:20:20.227Z,26.01
2022-08-01T07:22:48.335Z,26.62
2022-08-01T07:25:16.777Z,26.39
2022-08-01T07:27:44.561Z,26.65
2022-08-01T07:30:12.931Z,27.10
2022-08-01T07:32:40.903Z,27.25
2022-08-01T07:35:09.328Z,27.02
2022-08-01T07:37:47.787Z,27.53
2022-08-01T07:40:18.090Z,27.07
2022-08-01T07:42:46.085Z,27.52
2022-08-01T07:45:15.464Z,27.56
2022-08-01T07:47:43.668Z,28.24
2022-08-01T07:50:11.596Z,29.01
2022-08-01T07:52:40.803Z,29.38
2022-08-01T07:55:10.398Z,29.54
2022-08-01T07:57:38.657Z,29.01
2022-08-01T08:00:10.786Z,28.66
2022-08-01T08:02:38.496Z,29.14
2022-08-01T08:05:08.258Z,28.14
2022-08-01T08:07:36.576Z,27.41
2022-08-01T08:10:06.844Z,26.99
2022-08-01T08:12:35.104Z,26.79
2022-08-01T08:15:06.693Z,26.59
2022-08-01T08:17:35.598Z,27.11
2022-08-01T08:20:04.779Z,27.04
2022-08-01T08:22:37.210Z,26.89
2022-08-01T08:25:08.341Z,27.13
2022-08-01T08:27:37.469Z,27.33
2022-08-01T08:30:08.459Z,27.74
2022-08-01T08:32:36.589Z,27.79
2022-08-01T08:35:05.670Z,28.14
2022-08-01T08:37:38.964Z,28.50
2022-08-01T08:40:13.095Z,28.67
2022-08-01T08:42:42.735Z,28.58
2022-08-01T08:45:12.437Z,28.40
2022-08-01T08:47:41.377Z,27.63
2022-08-01T08:50:09.598Z,27.96
2022-08-01T08:52:40.441Z,27.47
2022-08-01T08:55:10.958Z,27.27
2022-08-01T08:57:42.921Z,27.31
2022-08-01T09:00:12.952Z,27.95
2022-08-01T09:02:43.429Z,28.25
2022-08-01T09:05:14.946Z,27.98
2022-08-01T09:07:45.532Z,27.45
2022-08-01T09:10:13.490Z,27.92
2022-08-01T09:13:11.546Z,28.44
2022-08-01T09:15:45.048Z,27.97
2022-08-01T09:18:30.643Z,27.12
2022-08-01T09:21:17.365Z,27.63
2022-08-01T09:23:54.164Z,27.69
2022-08-01T09:26:30.191Z,27.87
2022-08-01T09:29:01.330Z,27.38
2022-08-01T09:31:38.406Z,27.54
2022-08-01T09:34:07.074Z,27.87
2022-08-01T09:36:49.484Z,27.46
2022-08-01T09:39:17.653Z,27.66
2022-08-01T09:41:45.433Z,27.61
2022-08-01T09:44:14.920Z,27.40
2022-08-01T09:46:54.526Z,27.20
2022-08-01T09:49:50.447Z,26.67
2022-08-01T09:52:21.481Z,26.99
2022-08-01T09:54:58.096Z,27.29
2022-08-01T09:57:27.254Z,27.64
2022-08-01T10:00:00.806Z,27.61
2022-08-01T10:02:32.278Z,27.59
2022-08-01T10:05:03.677Z,27.96
2022-08-01T10:07:42.913Z,29.06
2022-08-01T10:10:12.856Z,30.33
2022-08-01T10:12:44.367Z,30.47
2022-08-01T10:15:18.027Z,29.98
2022-08-01T10:17:54.513Z,29.67
2022-08-01T10:20:30.083Z,28.90
2022-08-01T10:23:02.368Z,29.05
2022-08-01T10:25:42.418Z,28.69
2022-08-01T10:28:18.259Z,28.30
2022-08-01T10:30:53.831Z,27.87
2022-08-01T10:33:51.200Z,27.90
2022-08-01T10:36:12.609Z,27.91
2022-08-01T10:38:41.908Z,28.01
2022-08-01T10:41:10.678Z,28.23
2022-08-01T10:43:38.496Z,28.79
2022-08-01T10:46:08.199Z,29.22
2022-08-01T10:48:45.095Z,28.55
2022-08-01T10:51:17.731Z,28.90
2022-08-01T10:53:54.541Z,28.45
2022-08-01T10:56:26.909Z,28.47
2022-08-01T10:59:06.352Z,28.72
2022-08-01T11:01:38.415Z,28.84
2022-08-01T11:04:15.515Z,28.43
2022-08-01T11:06:54.387Z,28.37
2022-08-01T11:09:37.065Z,28.75
2022-08-01T11:12:13.124Z,28.95
2022-08-01T11:15:29.290Z,28.99
2022-08-01T11:18:02.084Z,28.49
2022-08-01T11:20:32.209Z,28.85
2022-08-01T11:23:28.618Z,28.36
2022-08-01T11:26:13.587Z,28.11
2022-08-01T11:28:59.169Z,28.30
2022-08-01T11:31:37.453Z,28.28
2022-08-01T11:34:08.090Z,27.92
2022-08-01T11:36:58.549Z,28.21
2022-08-01T11:39:23.910Z,28.61
2022-08-01T11:41:53.492Z,29.18
2022-08-01T11:44:26.540Z,29.92
2022-08-01T11:47:08.738Z,30.38
2022-08-01T11:50:02.409Z,30.02
2022-08-01T11:52:32.741Z,30.11
2022-08-01T11:55:10.424Z,29.82
2022-08-01T11:57:39.854Z,29.58
2022-08-01T12:00:15.236Z,29.52
2022-08-01T12:02:45.743Z,29.36
2022-08-01T12:05:18.420Z,29.32
2022-08-01T12:07:47.518Z,28.77
2022-08-01T12:10:17.020Z,28.46
2022-08-01T12:12:47.100Z,28.41
2022-08-01T12:15:15.580Z,29.21
2022-08-01T12:17:57.284Z,29.43
2022-08-01T12:20:31.427Z,30.12
2022-08-01T12:23:01.488Z,30.53
2022-08-01T12:25:29.568Z,30.47
2022-08-01T12:28:01.248Z,30.29
2022-08-01T12:30:31.910Z,30.20
2022-08-01T12:33:00.041Z,30.59
2022-08-01T12:35:30.639Z,30.85
2022-08-01T12:38:00.907Z,30.92
2022-08-01T12:40:30.165Z,31.17
2022-08-01T12:42:59.308Z,31.27
2022-08-01T12:45:29.080Z,31.39
2022-08-01T12:47:58.614Z,30.74
2022-08-01T12:50:30.684Z,30.81
2022-08-01T12:52:59.253Z,31.42
2022-08-01T12:55:33.788Z,31.05
2022-08-01T12:58:10.291Z,30.98
2022-08-01T13:00:45.468Z,30.32
2022-08-01T13:03:15.290Z,30.26
2022-08-01T13:05:46.216Z,30.86
2022-08-01T13:08:15.302Z,30.71
2022-08-01T13:10:43.895Z,30.27
2022-08-01T13:13:27.816Z,30.47
2022-08-01T13:16:05.510Z,31.22
2022-08-01T13:18:34.885Z,31.03
2022-08-01T13:21:11.669Z,31.18
2022-08-01T13:24:02.838Z,31.16
2022-08-01T13:26:40.550Z,30.26
2022-08-01T13:29:09.671Z,30.51
2022-08-01T13:31:38.458Z,31.08
2022-08-01T13:34:06.810Z,30.99
2022-08-01T13:36:36.241Z,30.52
2022-08-01T13:39:21.787Z,30.77
2022-08-01T13:41:50.144Z,30.38
2022-08-01T13:44:17.892Z,30.47
2022-08-01T13:46:49.885Z,30.57
2022-08-01T13:49:20.068Z,30.42
2022-08-01T13:51:50.995Z,30.18
2022-08-01T13:54:18.797Z,29.94
2022-08-01T13:56:46.991Z,29.76
2022-08-01T13:59:15.020Z,29.83
2022-08-01T14:01:43.525Z,30.31
2022-08-01T14:04:11.431Z,30.45
2022-08-01T14:06:39.144Z,30.90
2022-08-01T14:09:17.970Z,30.79
2022-08-01T14:11:51.696Z,30.52
2022-08-01T14:14:19.852Z,30.25
2022-08-01T14:16:49.013Z,30.44
2022-08-01T14:19:17.610Z,30.36
2022-08-01T14:21:47.231Z,30.09
2022-08-01T14:24:16.211Z,30.09
2022-08-01T14:26:43.890Z,29.81
2022-08-01T14:29:11.587Z,29.62
2022-08-01T14:31:39.181Z,29.58
2022-08-01T14:34:07.131Z,29.73
2022-08-01T14:36:38.185Z,29.55
2022-08-01T14:39:06.926Z,29.28
2022-08-01T14:41:41.646Z,29.31
2022-08-01T14:44:09.914Z,29.39
2022-08-01T14:46:37.590Z,29.52
2022-08-01T14:49:24.845Z,29.07
2022-08-01T14:51:52.750Z,29.02
2022-08-01T14:54:26.812Z,29.15
2022-08-01T14:56:58.505Z,28.83
2022-08-01T14:59:26.431Z,28.80
2022-08-01T15:01:54.238Z,29.08
2022-08-01T15:04:22.005Z,29.12
2022-08-01T15:06:49.857Z,29.05
2022-08-01T15:09:17.635Z,28.93
2022-08-01T15:11:50.163Z,28.56
2022-08-01T15:14:36.938Z,28.63
2022-08-01T15:17:04.718Z,28.40
2022-08-01T15:19:32.359Z,28.21
2022-08-01T15:22:01.699Z,28.05
2022-08-01T15:24:29.599Z,28.29
2022-08-01T15:26:57.378Z,28.25
2022-08-01T15:29:26.358Z,28.51
2022-08-01T15:31:54.059Z,28.28
2022-08-01T15:34:21.700Z,28.05
2022-08-01T15:36:49.328Z,28.05
2022-08-01T15:39:17.275Z,28.37
2022-08-01T15:41:45.258Z,28.38
2022-08-01T15:44:12.826Z,28.26
2022-08-01T15:46:42.071Z,28.05
2022-08-01T15:49:10.004Z,28.08
2022-08-01T15:51:37.733Z,28.06
2022-08-01T15:54:09.228Z,27.82
2022-08-01T15:56:40.831Z,28.09
2022-08-01T15:59:08.744Z,27.60
2022-08-01T16:01:36.576Z,27.74
2022-08-01T16:04:07.469Z,27.70
2022-08-01T16:06:35.947Z,27.76
2022-08-01T16:09:03.737Z,27.57
2022-08-01T16:11:31.771Z,27.59
2022-08-01T16:13:59.460Z,27.57
2022-08-01T16:16:27.365Z,27.42
2022-08-01T16:18:55.114Z,27.49
2022-08-01T16:21:25.041Z,27.49
2022-08-01T16:23:53.075Z,27.26
2022-08-01T16:26:27.254Z,27.36
2022-08-01T16:28:55.855Z,27.41
2022-08-01T16:31:37.895Z,27.07
2022-08-01T16:34:13.093Z,27.15
2022-08-01T16:36:44.185Z,27.14
2022-08-01T16:39:11.898Z,26.98
2022-08-01T16:41:39.722Z,27.05
2022-08-01T16:44:07.448Z,26.96
2022-08-01T16:46:35.427Z,26.98
2022-08-01T16:49:03.106Z,27.14
2022-08-01T16:51:32.583Z,27.00
2022-08-01T16:54:01.987Z,27.01
2022-08-01T16:56:29.858Z,26.94
2022-08-01T16:58:57.518Z,27.02
2022-08-01T17:02:00.167Z,26.95
2022-08-01T17:04:13.235Z,26.80
2022-08-01T17:06:41.024Z,26.69
2022-08-01T17:09:10.165Z,26.77
2022-08-01T17:11:37.899Z,26.80
2022-08-01T17:14:06.631Z,26.84
2022-08-01T17:16:36.011Z,26.91
2022-08-01T17:19:03.731Z,26.92
2022-08-01T17:21:31.563Z,26.89
2022-08-01T17:23:59.428Z,26.86
2022-08-01T17:26:28.599Z,26.78
2022-08-01T17:28:56.468Z,26.75
2022-08-01T17:31:24.142Z,26.79
2022-08-01T17:33:55.034Z,26.69
2022-08-01T17:36:25.324Z,26.73
2022-08-01T17:38:53.072Z,26.66
2022-08-01T17:41:20.919Z,26.84
2022-08-01T17:43:50.175Z,26.80
2022-08-01T17:46:18.451Z,26.82
2022-08-01T17:48:46.605Z,26.59
2022-08-01T17:51:17.083Z,26.70
2022-08-01T17:53:55.760Z,26.74
2022-08-01T17:56:25.215Z,26.71
2022-08-01T17:58:54.980Z,26.60
2022-08-01T18:01:26.502Z,26.64
2022-08-01T18:03:55.353Z,26.58
2022-08-01T18:06:25.475Z,26.63
2022-08-01T18:08:56.052Z,26.68
2022-08-01T18:11:27.528Z,26.53
2022-08-01T18:13:57.087Z,26.54
2022-08-01T18:16:27.396Z,26.54
2022-08-01T18:18:55.996Z,26.55
2022-08-01T18:21:23.876Z,26.54
2022-08-01T18:23:52.567Z,26.51
2022-08-01T18:26:21.270Z,26.41
2022-08-01T18:28:49.450Z,26.38
2022-08-01T18:31:20.453Z,26.39
2022-08-01T18:33:49.077Z,26.48
2022-08-01T18:36:31.327Z,26.52
2022-08-01T18:39:04.316Z,26.50
2022-08-01T18:41:32.812Z,26.53
2022-08-01T18:44:05.398Z,26.33
2022-08-01T18:46:38.510Z,26.33
2022-08-01T18:49:07.862Z,26.15
2022-08-01T18:51:43.832Z,26.21
2022-08-01T18:54:13.256Z,26.17
2022-08-01T18:56:41.132Z,25.97
2022-08-01T18:59:08.875Z,25.96
2022-08-01T19:01:39.690Z,25.76
2022-08-01T19:04:08.099Z,25.78
2022-08-01T19:06:35.954Z,25.62
2022-08-01T19:09:04.408Z,25.64
2022-08-01T19:11:33.122Z,25.72
2022-08-01T19:14:02.277Z,25.73
2022-08-01T19:16:30.515Z,25.63
2022-08-01T19:18:59.591Z,25.62
2022-08-01T19:21:28.650Z,25.52
2022-08-01T19:24:13.960Z,25.51
2022-08-01T19:26:48.383Z,25.25
2022-08-01T19:29:19.334Z,25.16
2022-08-01T19:31:49.127Z,25.16
2022-08-01T19:34:20.189Z,25.12
2022-08-01T19:36:56.680Z,25.05
2022-08-01T19:39:27.131Z,25.06
2022-08-01T19:41:55.946Z,24.99
2022-08-01T19:44:25.229Z,24.97
2022-08-01T19:46:54.137Z,24.98
2022-08-01T19:49:24.245Z,24.92
2022-08-01T19:51:55.285Z,24.75
2022-08-01T19:54:29.379Z,24.50
2022-08-01T19:57:01.736Z,24.57
2022-08-01T19:59:32.591Z,24.57
2022-08-01T20:02:00.534Z,24.56
2022-08-01T20:04:29.947Z,24.50
2022-08-01T20:06:57.917Z,24.47
2022-08-01T20:09:26.504Z,24.31
2022-08-01T20:11:55.471Z,24.33
2022-08-01T20:14:25.101Z,24.30
2022-08-01T20:16:54.397Z,24.24
2022-08-01T20:19:24.398Z,24.15
2022-08-01T20:22:03.500Z,24.13
2022-08-01T20:24:38.230Z,24.04
2022-08-01T20:27:10.178Z,24.04
2022-08-01T20:29:38.971Z,24.03
2022-08-01T20:32:07.836Z,23.92
2022-08-01T20:34:38.206Z,23.92
2022-08-01T20:37:12.881Z,23.83
2022-08-01T20:39:43.400Z,23.71
2022-08-01T20:42:12.591Z,23.83
2022-08-01T20:44:40.735Z,23.84
2022-08-01T20:47:09.124Z,23.79
2022-08-01T20:49:37.951Z,23.84
2022-08-01T20:52:11.928Z,23.85
2022-08-01T20:54:41.907Z,23.77
2022-08-01T20:57:16.977Z,23.70
2022-08-01T20:59:55.790Z,23.66
2022-08-01T21:02:32.312Z,23.74
2022-08-01T21:05:05.989Z,23.61
2022-08-01T21:07:38.950Z,23.64
2022-08-01T21:10:10.953Z,23.72
2022-08-01T21:12:49.430Z,23.65
2022-08-01T21:15:28.430Z,23.56
2022-08-01T21:18:02.306Z,23.58
2022-08-01T21:20:33.373Z,23.55
2022-08-01T21:23:15.388Z,23.54
2022-08-01T21:25:44.815Z,23.49
2022-08-01T21:28:14.925Z,23.43
2022-08-01T21:30:43.482Z,23.41
2022-08-01T21:33:24.521Z,23.28
2022-08-01T21:35:56.128Z,23.15
2022-08-01T21:38:24.987Z,23.01
2022-08-01T21:40:55.363Z,22.91
2022-08-01T21:43:24.092Z,22.79
2022-08-01T21:45:57.886Z,22.93
2022-08-01T21:48:30.778Z,22.93
2022-08-01T21:51:00.823Z,23.05
2022-08-01T21:53:38.453Z,23.00
2022-08-01T21:56:22.583Z,23.08
2022-08-01T21:58:56.515Z,23.15
2022-08-01T22:01:33.380Z,23.12
2022-08-01T22:04:23.184Z,23.07
2022-08-01T22:06:52.794Z,22.82
2022-08-01T22:09:22.016Z,22.83
2022-08-01T22:11:59.374Z,22.77
2022-08-01T22:14:31.001Z,22.78
2022-08-01T22:16:59.886Z,22.68
2022-08-01T22:19:35.138Z,22.69
2022-08-01T22:22:45.431Z,22.59
2022-08-01T22:25:02.937Z,22.68
2022-08-01T22:28:06.363Z,22.69
2022-08-01T22:30:20.447Z,22.49
2022-08-01T22:33:08.053Z,22.58
2022-08-01T22:35:39.901Z,22.61
2022-08-01T22:38:07.965Z,22.65
2022-08-01T22:40:45.140Z,22.73
2022-08-01T22:43:30.478Z,22.65
2022-08-01T22:46:11.835Z,22.57
2022-08-01T22:48:45.843Z,22.59
2022-08-01T22:51:27.115Z,22.42
2022-08-01T22:54:04.535Z,22.33
2022-08-01T22:56:37.170Z,22.31
2022-08-01T22:59:12.272Z,22.19
2022-08-01T23:01:47.600Z,22.09
2022-08-01T23:04:33.085Z,22.14
2022-08-01T23:07:05.003Z,22.09
2022-08-01T23:09:54.000Z,22.03
2022-08-01T23:12:23.577Z,22.02
2022-08-01T23:14:54.402Z,21.98
2022-08-01T23:17:26.758Z,21.83
2022-08-01T23:19:58.357Z,21.81
2022-08-01T23:22:30.176Z,21.68
2022-08-01T23:25:04.686Z,21.64
2022-08-01T23:27:55.842Z,21.73
2022-08-01T23:30:25.557Z,21.61
2022-08-01T23:32:53.371Z,21.35
2022-08-01T23:35:21.315Z,21.39
2022-08-01T23:37:51.263Z,21.27
2022-08-01T23:40:20.162Z,21.34
2022-08-01T23:42:47.930Z,21.19
2022-08-01T23:45:16.323Z,21.33
2022-08-01T23:47:45.364Z,21.20
2022-08-01T23:50:13.285Z,21.26
2022-08-01T23:52:48.154Z,21.13
2022-08-01T23:55:17.491Z,21.15
2022-08-01T23:57:45.235Z,21.07
